createdAt,value
2023-01-04T00:02:40.219Z,5.28
2023-01-04T00:05:43.959Z,5.26
2023-01-04T00:08:47.759Z,5.31
2023-01-04T00:11:52.821Z,5.35
2023-01-04T00:14:56.421Z,5.28
2023-01-04T00:18:00.098Z,5.33
2023-01-04T00:21:10.417Z,5.40
2023-01-04T00:24:15.440Z,5.40
2023-01-04T00:27:20.504Z,5.43
2023-01-04T00:30:24.295Z,5.48
2023-01-04T00:33:28.339Z,5.66
2023-01-04T00:36:32.937Z,5.54
2023-01-04T00:39:36.534Z,5.52
2023-01-04T00:42:41.586Z,5.54
2023-01-04T00:45:45.807Z,5.65
2023-01-04T00:48:50.819Z,5.65
2023-01-04T00:51:54.716Z,5.73
2023-01-04T00:54:58.360Z,5.72
2023-01-04T00:58:03.401Z,5.71
2023-01-04T01:01:08.076Z,5.78
2023-01-04T01:04:15.521Z,5.78
2023-01-04T01:07:19.259Z,5.81
2023-01-04T01:10:22.936Z,5.79
2023-01-04T01:13:28.264Z,5.78
2023-01-04T01:16:53.517Z,5.73
2023-01-04T01:19:55.926Z,5.84
2023-01-04T01:22:59.565Z,5.83
2023-01-04T01:26:03.723Z,5.82
2023-01-04T01:29:08.721Z,5.93
2023-01-04T01:32:12.354Z,5.95
2023-01-04T01:35:16.002Z,6.03
2023-01-04T01:38:20.033Z,5.96
2023-01-04T01:41:26.682Z,6.01
2023-01-04T01:45:00.803Z,6.03
2023-01-04T01:48:12.450Z,6.04
2023-01-04T01:51:18.811Z,6.01
2023-01-04T01:54:27.205Z,6.16
2023-01-04T01:57:35.686Z,6.19
2023-01-04T02:00:41.013Z,6.15
2023-01-04T02:03:45.455Z,6.15
2023-01-04T02:06:54.353Z,6.20
2023-01-04T02:09:59.639Z,6.26
2023-01-04T02:13:09.307Z,6.32
2023-01-04T02:16:26.861Z,6.29
2023-01-04T02:19:58.841Z,6.31
2023-01-04T02:23:56.384Z,6.32
2023-01-04T02:27:45.629Z,6.28
2023-01-04T02:31:17.289Z,6.21
2023-01-04T02:34:34.138Z,6.11
2023-01-04T02:37:47.803Z,6.24
2023-01-04T02:41:05.256Z,6.17
2023-01-04T02:44:35.167Z,6.35
2023-01-04T02:47:59.365Z,6.37
2023-01-04T02:51:03.045Z,6.36
2023-01-04T02:54:11.984Z,6.32
2023-01-04T02:57:38.722Z,6.28
2023-01-04T03:01:16.995Z,6.23
2023-01-04T03:05:05.296Z,6.16
2023-01-04T03:08:18.662Z,6.07
2023-01-04T03:11:40.058Z,6.05
2023-01-04T03:15:00.408Z,6.06
2023-01-04T03:18:14.900Z,6.03
2023-01-04T03:21:23.936Z,5.97
2023-01-04T03:24:45.289Z,5.93
2023-01-04T03:28:09.829Z,5.94
2023-01-04T03:31:38.433Z,5.89
2023-01-04T03:35:00.232Z,5.88
2023-01-04T03:38:29.322Z,5.89
2023-01-04T03:42:02.401Z,5.86
2023-01-04T03:45:35.397Z,5.89
2023-01-04T03:48:47.164Z,5.81
2023-01-04T03:51:57.957Z,5.79
2023-01-04T03:55:07.249Z,5.88
2023-01-04T03:58:11.715Z,5.82
2023-01-04T04:01:15.668Z,5.84
2023-01-04T04:04:37.056Z,5.82
2023-01-04T04:07:58.429Z,5.83
2023-01-04T04:11:19.004Z,5.79
2023-01-04T04:14:22.602Z,5.78
2023-01-04T04:17:26.401Z,5.79
2023-01-04T04:20:30.324Z,5.77
2023-01-04T04:23:34.062Z,5.79
2023-01-04T04:26:39.058Z,5.78
2023-01-04T04:29:42.702Z,5.89
2023-01-04T04:32:46.592Z,5.82
2023-01-04T04:35:52.890Z,5.83
2023-01-04T04:38:56.559Z,5.89
2023-01-04T04:42:01.543Z,5.90
2023-01-04T04:45:05.916Z,5.91
2023-01-04T04:48:09.705Z,5.92
2023-01-04T04:51:13.470Z,5.96
2023-01-04T04:54:20.551Z,5.96
2023-01-04T04:57:25.557Z,6.05
2023-01-04T05:00:29.377Z,6.09
2023-01-04T05:03:33.246Z,6.09
2023-01-04T05:06:36.895Z,6.15
2023-01-04T05:09:40.492Z,6.22
2023-01-04T05:13:00.640Z,6.21
2023-01-04T05:16:06.921Z,6.26
2023-01-04T05:19:10.863Z,6.32
2023-01-04T05:22:14.546Z,6.37
2023-01-04T05:25:18.818Z,6.40
2023-01-04T05:28:24.157Z,6.44
2023-01-04T05:31:27.011Z,6.45
2023-01-04T05:34:30.736Z,6.46
2023-01-04T05:37:34.532Z,6.50
2023-01-04T05:40:38.175Z,6.47
2023-01-04T05:43:43.224Z,6.56
2023-01-04T05:46:46.866Z,6.57
2023-01-04T05:49:50.633Z,6.67
2023-01-04T05:52:54.457Z,6.69
2023-01-04T05:55:58.096Z,6.82
2023-01-04T05:59:03.117Z,6.78
2023-01-04T06:02:08.872Z,6.89
2023-01-04T06:05:13.587Z,6.90
2023-01-04T06:08:17.190Z,6.97
2023-01-04T06:11:27.221Z,7.09
2023-01-04T06:14:32.994Z,7.06
2023-01-04T06:17:37.757Z,7.08
2023-01-04T06:20:41.349Z,7.11
2023-01-04T06:23:44.973Z,7.15
2023-01-04T06:26:49.526Z,7.18
2023-01-04T06:29:55.108Z,7.24
2023-01-04T06:32:58.687Z,7.24
2023-01-04T06:36:03.180Z,7.25
2023-01-04T06:39:07.683Z,7.33
2023-01-04T06:42:31.493Z,7.36
2023-01-04T06:45:36.675Z,7.36
2023-01-04T06:48:40.328Z,7.45
2023-01-04T06:51:44.193Z,7.50
2023-01-04T06:54:48.169Z,7.60
2023-01-04T06:57:56.318Z,7.64
2023-01-04T07:01:04.765Z,7.72
2023-01-04T07:04:08.656Z,7.77
2023-01-04T07:07:12.826Z,7.85
2023-01-04T07:10:16.557Z,7.90
2023-01-04T07:13:20.231Z,7.92
2023-01-04T07:16:25.759Z,7.96
2023-01-04T07:19:29.522Z,8.04
2023-01-04T07:22:33.210Z,7.99
2023-01-04T07:25:37.417Z,7.99
2023-01-04T07:28:58.681Z,8.11
2023-01-04T07:32:05.728Z,8.14
2023-01-04T07:35:12.597Z,8.12
2023-01-04T07:38:16.244Z,8.12
2023-01-04T07:41:20.646Z,8.16
2023-01-04T07:44:25.726Z,8.27
2023-01-04T07:47:30.873Z,8.31
2023-01-04T07:50:34.499Z,8.25
2023-01-04T07:53:38.196Z,8.29
2023-01-04T07:56:42.043Z,8.27
2023-01-04T07:59:45.831Z,8.33
2023-01-04T08:02:52.191Z,8.33
2023-01-04T08:05:55.916Z,8.36
2023-01-04T08:09:00.563Z,8.33
2023-01-04T08:12:05.303Z,8.43
2023-01-04T08:15:10.076Z,8.38
2023-01-04T08:18:15.046Z,8.37
2023-01-04T08:21:18.619Z,8.45
2023-01-04T08:24:22.986Z,8.46
2023-01-04T08:27:26.576Z,8.41
2023-01-04T08:30:30.350Z,8.55
2023-01-04T08:33:36.993Z,8.51
2023-01-04T08:36:49.667Z,8.61
2023-01-04T08:39:53.311Z,8.62
2023-01-04T08:42:56.995Z,8.66
2023-01-04T08:46:00.999Z,8.61
2023-01-04T08:49:06.039Z,8.64
2023-01-04T08:52:11.845Z,8.71
2023-01-04T08:55:21.516Z,8.85
2023-01-04T08:58:27.046Z,8.88
2023-01-04T09:01:32.630Z,8.87
2023-01-04T09:04:38.190Z,8.87
2023-01-04T09:07:41.944Z,8.95
2023-01-04T09:10:45.633Z,9.02
2023-01-04T09:13:50.140Z,9.04
2023-01-04T09:16:53.858Z,9.02
2023-01-04T09:19:58.945Z,9.02
2023-01-04T09:23:02.515Z,9.04
2023-01-04T09:26:10.198Z,8.98
2023-01-04T09:29:13.810Z,8.98
2023-01-04T09:32:19.062Z,8.96
2023-01-04T09:35:25.423Z,8.98
2023-01-04T09:38:29.091Z,8.94
2023-01-04T09:41:38.009Z,8.97
2023-01-04T09:45:22.413Z,9.03
2023-01-04T09:48:24.825Z,9.03
2023-01-04T09:51:38.497Z,9.06
2023-01-04T09:54:51.587Z,9.10
2023-01-04T09:58:01.378Z,9.17
2023-01-04T10:01:12.075Z,9.19
2023-01-04T10:04:25.650Z,9.24
2023-01-04T10:07:34.651Z,9.24
2023-01-04T10:10:51.855Z,9.23
2023-01-04T10:14:30.213Z,9.22
2023-01-04T10:19:36.969Z,9.30
2023-01-04T10:21:41.551Z,9.36
2023-01-04T10:25:01.698Z,9.33
2023-01-04T10:28:23.661Z,9.37
2023-01-04T10:31:40.607Z,9.38
2023-01-04T10:34:47.497Z,9.38
2023-01-04T10:37:59.083Z,9.37
2023-01-04T10:41:13.505Z,9.38
2023-01-04T10:44:28.491Z,9.37
2023-01-04T10:47:44.160Z,9.36
2023-01-04T10:50:56.542Z,9.35
2023-01-04T10:54:07.897Z,9.38
2023-01-04T10:57:20.517Z,9.44
2023-01-04T11:00:31.420Z,9.42
2023-01-04T11:03:43.385Z,9.47
2023-01-04T11:06:57.508Z,9.55
2023-01-04T11:10:09.405Z,9.55
2023-01-04T11:13:15.525Z,9.56
2023-01-04T11:16:19.317Z,9.65
2023-01-04T11:19:23.420Z,9.66
2023-01-04T11:22:37.420Z,9.69
2023-01-04T11:25:53.831Z,9.69
2023-01-04T11:29:07.273Z,9.63
2023-01-04T11:32:22.550Z,9.67
2023-01-04T11:35:42.944Z,9.69
2023-01-04T11:38:57.137Z,9.70
2023-01-04T11:42:04.522Z,9.70
2023-01-04T11:45:20.981Z,9.70
2023-01-04T11:48:36.602Z,9.74
2023-01-04T11:51:43.310Z,9.75
2023-01-04T11:54:46.894Z,9.76
2023-01-04T11:58:07.271Z,9.79
2023-01-04T12:01:24.882Z,9.76
2023-01-04T12:04:32.507Z,9.73
2023-01-04T12:07:39.626Z,9.72
2023-01-04T12:10:44.321Z,9.73
2023-01-04T12:13:48.303Z,9.73
2023-01-04T12:17:06.187Z,9.73
2023-01-04T12:20:19.920Z,9.71
2023-01-04T12:23:24.567Z,9.76
2023-01-04T12:26:28.566Z,9.77
2023-01-04T12:29:55.616Z,9.85
2023-01-04T12:33:00.816Z,9.92
2023-01-04T12:36:07.010Z,9.98
2023-01-04T12:39:43.967Z,10.02
2023-01-04T12:43:26.275Z,10.05
2023-01-04T12:47:01.123Z,10.03
2023-01-04T12:50:11.041Z,10.01
2023-01-04T12:53:54.149Z,10.01
2023-01-04T12:57:36.862Z,9.99
2023-01-04T13:01:24.984Z,9.99
2023-01-04T13:04:41.625Z,9.99
2023-01-04T13:07:51.401Z,10.01
2023-01-04T13:10:59.684Z,10.04
2023-01-04T13:14:10.299Z,10.11
2023-01-04T13:17:22.174Z,10.19
2023-01-04T13:20:30.702Z,10.22
2023-01-04T13:23:36.330Z,10.27
2023-01-04T13:26:45.973Z,10.29
2023-01-04T13:29:51.806Z,10.30
2023-01-04T13:33:24.869Z,10.30
2023-01-04T13:36:19.212Z,10.25
2023-01-04T13:39:25.466Z,10.23
2023-01-04T13:42:33.437Z,10.23
2023-01-04T13:46:08.662Z,10.16
2023-01-04T13:49:17.630Z,10.07
2023-01-04T13:55:53.335Z,10.10
2023-01-04T13:58:57.371Z,10.09
2023-01-04T14:02:01.196Z,10.09
2023-01-04T14:05:05.442Z,10.06
2023-01-04T14:08:13.180Z,10.05
2023-01-04T14:11:42.044Z,10.02
2023-01-04T14:14:55.477Z,10.00
2023-01-04T14:17:59.245Z,9.98
2023-01-04T14:21:03.072Z,10.01
2023-01-04T14:28:49.125Z,9.97
2023-01-04T14:31:53.826Z,10.01
2023-01-04T14:34:57.787Z,10.03
2023-01-04T14:38:07.609Z,10.13
2023-01-04T14:41:22.320Z,10.12
2023-01-04T14:44:31.731Z,10.16
2023-01-04T14:47:35.485Z,10.11
2023-01-04T14:50:39.754Z,10.09
2023-01-04T14:53:43.522Z,10.10
2023-01-04T14:56:47.342Z,10.11
2023-01-04T14:59:52.435Z,10.09
2023-01-04T15:02:56.205Z,10.01
2023-01-04T15:06:00.174Z,9.99
2023-01-04T15:09:04.488Z,9.95
2023-01-04T15:12:08.212Z,9.95
2023-01-04T15:15:28.396Z,9.96
2023-01-04T15:18:32.193Z,9.98
2023-01-04T15:21:40.948Z,9.95
2023-01-04T15:24:45.059Z,9.91
2023-01-04T15:27:48.920Z,9.89
2023-01-04T15:30:54.003Z,9.88
2023-01-04T15:33:57.737Z,9.87
2023-01-04T15:37:01.395Z,9.85
2023-01-04T15:40:07.879Z,9.79
2023-01-04T15:43:11.922Z,9.86
2023-01-04T15:46:17.033Z,9.89
2023-01-04T15:49:20.704Z,9.84
2023-01-04T15:52:24.452Z,9.83
2023-01-04T15:55:34.325Z,9.83
2023-01-04T15:58:40.872Z,9.89
2023-01-04T16:01:46.317Z,9.86
2023-01-04T16:04:50.534Z,9.81
2023-01-04T16:07:54.360Z,9.78
2023-01-04T16:10:58.139Z,9.83
2023-01-04T16:14:01.947Z,9.76
2023-01-04T16:17:06.949Z,9.74
2023-01-04T16:20:13.732Z,9.74
2023-01-04T16:23:17.636Z,9.79
2023-01-04T16:26:21.705Z,9.77
2023-01-04T16:29:25.457Z,9.87
2023-01-04T16:32:30.523Z,9.86
2023-01-04T16:35:34.417Z,9.81
2023-01-04T16:38:39.340Z,9.84
2023-01-04T16:41:43.119Z,9.77
2023-01-04T16:44:46.776Z,9.83
2023-01-04T16:47:53.796Z,9.82
2023-01-04T16:50:57.365Z,9.75
2023-01-04T16:54:04.279Z,9.69
2023-01-04T16:57:07.922Z,9.66
2023-01-04T17:00:13.187Z,9.70
2023-01-04T17:03:18.187Z,9.70
2023-01-04T17:06:24.310Z,9.68
2023-01-04T17:09:27.910Z,9.67
2023-01-04T17:12:48.362Z,9.69
2023-01-04T17:15:53.108Z,9.67
2023-01-04T17:18:58.208Z,9.78
2023-01-04T17:22:02.000Z,9.74
2023-01-04T17:25:07.165Z,9.69
2023-01-04T17:28:10.807Z,9.68
2023-01-04T17:31:17.655Z,9.66
2023-01-04T17:34:23.524Z,9.59
2023-01-04T17:37:27.814Z,9.61
2023-01-04T17:40:31.666Z,9.57
2023-01-04T17:43:35.337Z,9.65
2023-01-04T17:46:39.888Z,9.53
2023-01-04T17:49:45.016Z,9.54
2023-01-04T17:52:50.783Z,9.48
2023-01-04T17:55:54.417Z,9.51
2023-01-04T17:59:02.783Z,9.59
2023-01-04T18:02:06.626Z,9.55
2023-01-04T18:05:12.186Z,9.52
2023-01-04T18:08:15.806Z,9.56
2023-01-04T18:11:19.457Z,9.50
2023-01-04T18:14:23.468Z,9.50
2023-01-04T18:17:27.154Z,9.48
2023-01-04T18:20:32.329Z,9.51
2023-01-04T18:23:35.969Z,9.60
2023-01-04T18:27:10.871Z,9.60
2023-01-04T18:30:04.239Z,9.54
2023-01-04T18:33:08.044Z,9.56
2023-01-04T18:36:13.694Z,9.65
2023-01-04T18:39:17.337Z,9.59
2023-01-04T18:42:20.967Z,9.55
2023-01-04T18:45:42.084Z,9.51
2023-01-04T18:48:51.272Z,9.57
2023-01-04T18:51:56.506Z,9.52
2023-01-04T18:55:00.155Z,9.56
2023-01-04T18:58:03.872Z,9.60
2023-01-04T19:01:10.518Z,9.62
2023-01-04T19:04:16.260Z,9.59
2023-01-04T19:07:21.303Z,9.50
2023-01-04T19:10:25.271Z,9.50
2023-01-04T19:13:30.584Z,9.46
2023-01-04T19:16:34.252Z,9.50
2023-01-04T19:19:38.339Z,9.48
2023-01-04T19:22:43.378Z,9.47
2023-01-04T19:25:47.614Z,9.46
2023-01-04T19:28:52.046Z,9.40
2023-01-04T19:31:57.195Z,9.38
2023-01-04T19:35:00.777Z,9.40
2023-01-04T19:38:06.216Z,9.42
2023-01-04T19:41:16.660Z,9.34
2023-01-04T19:44:20.301Z,9.16
2023-01-04T19:47:24.125Z,9.00
2023-01-04T19:50:27.718Z,9.00
2023-01-04T19:53:32.937Z,9.12
2023-01-04T19:56:36.551Z,9.19
2023-01-04T19:59:40.252Z,9.15
2023-01-04T20:02:44.105Z,9.31
2023-01-04T20:05:48.046Z,9.39
2023-01-04T20:08:53.213Z,9.35
2023-01-04T20:11:56.859Z,9.44
2023-01-04T20:15:00.487Z,9.50
2023-01-04T20:18:07.282Z,9.52
2023-01-04T20:21:17.425Z,9.49
2023-01-04T20:24:22.452Z,9.56
2023-01-04T20:27:26.174Z,9.57
2023-01-04T20:30:29.846Z,9.59
2023-01-04T20:33:33.937Z,9.58
2023-01-04T20:36:39.739Z,9.61
2023-01-04T20:39:44.776Z,9.58
2023-01-04T20:43:05.687Z,9.63
2023-01-04T20:46:14.513Z,9.59
2023-01-04T20:49:18.147Z,9.51
2023-01-04T20:52:21.800Z,9.56
2023-01-04T20:55:26.916Z,9.56
2023-01-04T20:58:30.590Z,9.57
2023-01-04T21:01:34.459Z,9.55
2023-01-04T21:04:38.239Z,9.44
2023-01-04T21:07:42.032Z,9.31
2023-01-04T21:10:47.053Z,9.25
2023-01-04T21:13:52.875Z,9.22
2023-01-04T21:16:56.535Z,9.10
2023-01-04T21:20:00.189Z,9.10
2023-01-04T21:23:03.814Z,9.04
2023-01-04T21:26:10.516Z,8.92
2023-01-04T21:29:14.237Z,8.88
2023-01-04T21:32:17.925Z,8.80
2023-01-04T21:35:21.690Z,8.93
2023-01-04T21:38:25.295Z,8.97
2023-01-04T21:41:30.568Z,8.90
2023-01-04T21:44:34.254Z,8.81
2023-01-04T21:47:38.939Z,8.84
2023-01-04T21:50:42.815Z,8.88
2023-01-04T21:53:46.422Z,8.84
2023-01-04T21:56:51.529Z,8.87
2023-01-04T21:59:55.241Z,8.90
2023-01-04T22:02:59.523Z,8.83
2023-01-04T22:06:03.578Z,8.84
2023-01-04T22:09:07.441Z,8.80
2023-01-04T22:12:12.477Z,8.75
2023-01-04T22:15:25.415Z,8.69
2023-01-04T22:18:29.142Z,8.70
2023-01-04T22:21:32.903Z,8.57
2023-01-04T22:24:38.280Z,8.48
2023-01-04T22:27:43.870Z,8.39
2023-01-04T22:30:47.518Z,8.34
2023-01-04T22:33:51.387Z,8.35
2023-01-04T22:36:55.103Z,8.46
2023-01-04T22:39:58.762Z,8.48
2023-01-04T22:43:03.878Z,8.52
2023-01-04T22:46:11.720Z,8.57
2023-01-04T22:49:15.428Z,8.53
2023-01-04T22:52:19.156Z,8.52
2023-01-04T22:55:23.802Z,8.51
2023-01-04T22:58:28.809Z,8.54
2023-01-04T23:01:34.982Z,8.53
2023-01-04T23:04:38.671Z,8.59
2023-01-04T23:07:42.325Z,8.60
2023-01-04T23:10:46.013Z,8.61
2023-01-04T23:13:52.558Z,8.60
2023-01-04T23:16:56.458Z,8.70
2023-01-04T23:20:00.157Z,8.76
2023-01-04T23:23:03.730Z,8.88
2023-01-04T23:26:09.605Z,8.88
2023-01-04T23:29:15.872Z,8.90
2023-01-04T23:32:19.465Z,8.85
2023-01-04T23:35:23.866Z,8.88
2023-01-04T23:38:27.472Z,8.86
2023-01-04T23:41:46.293Z,8.85
2023-01-04T23:44:51.666Z,8.86
2023-01-04T23:47:55.534Z,8.83
2023-01-04T23:50:59.378Z,8.86
2023-01-04T23:54:03.025Z,8.88
2023-01-04T23:57:06.705Z,8.84
